M/T Goviken — 9HA2718 — position and weather

sailwx.info

Track history (hours):
 
Tides and Currents Weather Stations Pressure Air Temp Water Temp Dewpoint Dewpoint Depression Visibility Wind Speed Wind Dir Waves Ship Positions

M/T Goviken

Last reported at 2016-May-27 01:33 UTC. Time now 2016-May-27 02:21 UTC.
Position N 54°41' W 001°08'.

Length 88 m; draft 6.4 m.

Type: Ship (hazmat cat A). MMSI: 215389000.

Date/timePositionNaut miles runAvg speedWind from/ knotsBaromVisibWave heightAir tempDewpointWater temp
2016-May-27 01:33N 54°41' W 001°08'3 0.2
2016-May-26 06:33N 54°38' W 001°09'6 5.8
2016-May-26 05:33N 54°43' W 001°06'3 3.3
2016-May-26 04:32N 54°45' W 001°09'0 0.0
2016-May-26 03:30N 54°45' W 001°09'0 0.0
2016-May-26 02:32N 54°45' W 001°09'0 0.0
2016-May-26 01:32N 54°46' W 001°09'0 0.0
2016-May-26 00:32N 54°45' W 001°09'0 0.0
2016-May-25 23:32N 54°45' W 001°09'0 0.0
2016-May-25 22:29N 54°45' W 001°09'0 0.0
2016-May-25 21:33N 54°45' W 001°09'0 0.0
2016-May-25 20:32N 54°45' W 001°09'0 0.0
2016-May-25 19:33N 54°45' W 001°09'0 0.0
2016-May-25 18:32N 54°45' W 001°09'0 0.0
2016-May-25 17:33N 54°45' W 001°09'0 0.0
2016-May-25 16:32N 54°45' W 001°09'0 0.0
2016-May-25 15:32N 54°45' W 001°09'0 0.0
2016-May-25 14:32N 54°45' W 001°09'0 0.0
2016-May-25 13:32N 54°45' W 001°09'0 0.0
2016-May-25 12:33N 54°45' W 001°09'0 0.0
2016-May-25 11:32N 54°45' W 001°09'0 0.0
2016-May-25 10:32N 54°45' W 001°09'0 0.0
2016-May-25 09:32N 54°46' W 001°09'0 0.0
2016-May-25 08:32N 54°46' W 001°09'0 0.0
2016-May-25 07:32N 54°45' W 001°09'0 0.0
2016-May-25 06:26N 54°45' W 001°09'0 0.0
2016-May-25 05:32N 54°45' W 001°09'0 0.0
2016-May-25 04:32N 54°45' W 001°09'0 0.0
2016-May-25 03:32N 54°45' W 001°09'0 0.0
2016-May-25 02:29N 54°45' W 001°09'0 0.0
2016-May-25 01:32N 54°46' W 001°09'0 0.0
2016-May-25 00:32N 54°46' W 001°09'0 0.0
2016-May-24 23:32N 54°46' W 001°09'0 0.0
2016-May-24 22:32N 54°46' W 001°09'0 0.0
2016-May-24 21:32N 54°46' W 001°09'0 0.0
2016-May-24 20:32N 54°46' W 001°09'0 0.0
2016-May-24 19:32N 54°46' W 001°09'0 0.0
2016-May-24 18:32N 54°46' W 001°09'0 0.0
2016-May-24 17:26N 54°45' W 001°09'0 0.0
2016-May-24 16:32N 54°45' W 001°09'0 0.0
2016-May-24 15:32N 54°46' W 001°09'0 0.0
2016-May-24 14:32N 54°46' W 001°09'0 0.0
2016-May-24 13:31N 54°46' W 001°09'0 0.0
2016-May-24 12:32N 54°46' W 001°09'0 0.0
2016-May-24 11:32N 54°46' W 001°09'0 0.0
2016-May-24 10:32N 54°46' W 001°09'0 0.0
2016-May-24 09:32N 54°46' W 001°09'1 0.8
2016-May-24 08:33N 54°45' W 001°09'5 5.3
2016-May-24 07:33N 54°42' W 001°01'0 0.0
2016-May-24 06:30N 54°42' W 001°01'0 0.0
2016-May-24 05:30N 54°42' W 001°01'0 0.0
2016-May-24 04:33N 54°42' W 001°01'0 0.0
2016-May-24 03:33N 54°42' W 001°01'0 0.0
2016-May-24 02:33N 54°42' W 001°01'0 0.1
2016-May-24 01:30N 54°42' W 001°01'0 0.0
2016-May-24 00:33N 54°42' W 001°01'0 0.0
2016-May-23 23:33N 54°42' W 001°01'0 0.0
2016-May-23 22:33N 54°42' W 001°01'0 0.0
2016-May-23 21:33N 54°42' W 001°01'0 0.0
2016-May-23 20:33N 54°42' W 001°01'0 0.1
2016-May-23 19:33N 54°42' W 001°01'0 0.0
2016-May-23 18:33N 54°42' W 001°01'0 0.0
2016-May-23 17:33N 54°42' W 001°01'0 0.0
2016-May-23 16:33N 54°42' W 001°01'0 0.0
2016-May-23 15:30N 54°42' W 001°01'0 0.0
2016-May-23 14:33N 54°42' W 001°01'0 0.0
2016-May-23 13:33N 54°42' W 001°01'0 0.0
2016-May-23 12:33N 54°42' W 001°01'0 0.0
2016-May-23 11:33N 54°42' W 001°01'0 0.0
2016-May-23 10:30N 54°42' W 001°01'0 0.1
2016-May-23 09:33N 54°42' W 001°01'0 0.1
2016-May-23 08:33N 54°42' W 001°01'0 0.0
2016-May-23 07:33N 54°42' W 001°01'0 0.0
2016-May-23 06:30N 54°42' W 001°01'0 0.0
2016-May-23 05:33N 54°42' W 001°01'0 0.0
2016-May-23 04:33N 54°42' W 001°01'0 0.0
2016-May-23 03:33N 54°42' W 001°01'0 0.0
2016-May-23 02:33N 54°42' W 001°01'0 0.0
2016-May-23 01:33N 54°42' W 001°01'0 0.0
2016-May-23 00:30N 54°42' W 001°01'0 0.1
2016-May-22 23:30N 54°42' W 001°01'0 0.0
2016-May-22 22:33N 54°42' W 001°01'0 0.0
2016-May-22 21:33N 54°42' W 001°01'0 0.0
2016-May-22 20:33N 54°42' W 001°01'0 0.0
2016-May-22 19:33N 54°42' W 001°01'0 0.1
2016-May-22 18:33N 54°42' W 001°01'0 0.1
2016-May-22 17:33N 54°42' W 001°01'0 0.0
2016-May-22 16:27N 54°42' W 001°01'0 0.1
2016-May-22 15:33N 54°42' W 001°01'0 0.1
2016-May-22 14:33N 54°42' W 001°01'0 0.1
2016-May-22 13:33N 54°42' W 001°01'0 0.0
2016-May-22 12:30N 54°42' W 001°01'0 0.0
2016-May-22 11:33N 54°42' W 001°01'0 0.0
2016-May-22 10:33N 54°42' W 001°01'0 0.0
2016-May-22 09:33N 54°42' W 001°01'0 0.0
2016-May-22 08:33N 54°42' W 001°01'0 0.1
2016-May-22 07:33N 54°42' W 001°01'0 0.1
2016-May-22 06:33N 54°42' W 001°01'0 0.0
2016-May-22 05:33N 54°42' W 001°01'0 0.0
2016-May-22 04:33N 54°42' W 001°01'0 0.0
2016-May-22 03:33N 54°42' W 001°01'0 0.0
2016-May-22 02:33N 54°42' W 001°01'0 0.1
2016-May-22 01:30N 54°42' W 001°01'0 0.1
2016-May-22 00:33N 54°42' W 001°01'0 0.1
2016-May-21 23:33N 54°42' W 001°01'0 0.0
2016-May-21 22:33N 54°42' W 001°01'0 0.0
2016-May-21 21:30N 54°42' W 001°01'0 0.0
2016-May-21 20:30N 54°42' W 001°01'0 0.0
2016-May-21 19:33N 54°42' W 001°01'0 0.0
2016-May-21 18:30N 54°42' W 001°01'0 0.1
2016-May-21 17:33N 54°42' W 001°01'0 0.2
2016-May-21 16:33N 54°42' W 001°01'9 9.1
2016-May-21 15:33N 54°41' W 000°45'10 9.5
2016-May-21 14:30N 54°37' W 000°30'8 8.1
2016-May-21 13:33N 54°32' W 000°19'8 7.9
2016-May-21 12:33N 54°27' W 000°08'8 7.8
2016-May-21 11:33N 54°22' E 000°03'8 8.3
2016-May-21 10:33N 54°16' E 000°11'9 8.7
2016-May-21 09:34N 54°08' E 000°19'10 9.5
2016-May-21 08:33N 54°00' E 000°28'58 9.7
2016-May-21 02:33N 53°11' E 001°19'1312.6
2016-May-21 01:33N 53°00' E 001°30'1313.2
2016-May-21 00:33N 52°51' E 001°45'1312.6
2016-May-20 23:33N 52°44' E 002°04'1211.3
2016-May-20 22:29N 52°38' E 002°20'1010.4
2016-May-20 21:31N 52°32' E 002°34'1010.1
2016-May-20 20:33N 52°27' E 002°47'1410.6
2016-May-20 19:16N 52°20' E 003°06'810.5
2016-May-20 18:33N 52°15' E 003°16'1210.6
2016-May-20 17:28N 52°09' E 003°32'910.2
2016-May-20 16:33N 52°05' E 003°46'8 7.6
2016-May-20 15:33N 52°02' E 003°57'1010.2
2016-May-20 14:33N 51°56' E 004°11'0 0.0
2016-May-20 13:31N 51°56' E 004°11'0 0.0
2016-May-20 12:31N 51°56' E 004°11'0 0.0
2016-May-20 11:31N 51°56' E 004°11'0 0.0
2016-May-20 10:31N 51°56' E 004°11'0 0.0
2016-May-20 09:31N 51°56' E 004°11'0 0.0
2016-May-20 08:31N 51°56' E 004°11'0 0.0
2016-May-20 07:31N 51°56' E 004°11'0 0.0
2016-May-20 06:31N 51°56' E 004°11'0 0.0
2016-May-20 05:28N 51°56' E 004°11'0 0.0
2016-May-20 04:31N 51°56' E 004°11'0 0.0
2016-May-20 03:31N 51°56' E 004°11'0 0.0
2016-May-20 02:28N 51°56' E 004°11'0 0.0
2016-May-20 01:31N 51°56' E 004°11'0 0.0
2016-May-20 00:31N 51°56' E 004°11'0 0.0
2016-May-19 23:31N 51°56' E 004°11'0 0.0
2016-May-19 22:31N 51°56' E 004°11'0 0.0
2016-May-19 21:31N 51°56' E 004°11'0 0.0
2016-May-19 20:31N 51°56' E 004°11'0 0.0
2016-May-19 19:31N 51°56' E 004°11'0 0.0
2016-May-19 18:31N 51°56' E 004°11'0 0.0
2016-May-19 17:31N 51°56' E 004°11'0 0.0
2016-May-19 16:31N 51°56' E 004°11'0 0.0
2016-May-19 15:31N 51°56' E 004°11'0 0.0
2016-May-19 14:33N 51°56' E 004°11'3 3.2
2016-May-19 13:33N 51°58' E 004°07'1110.9
2016-May-19 12:33N 51°60' E 003°49'5 3.5
2016-May-19 11:04N 51°56' E 003°44'0 0.0
2016-May-19 10:16N 51°56' E 003°44'0 0.1
2016-May-19 09:31N 51°56' E 003°44'0 0.0
2016-May-19 08:22N 51°56' E 003°44'0 0.0
2016-May-19 07:28N 51°56' E 003°44'0 0.0
2016-May-19 06:13N 51°56' E 003°44'0 0.0
2016-May-19 02:25N 51°56' E 003°44'0 0.0
2016-May-19 00:19N 51°56' E 003°44'0 0.0
2016-May-18 23:25N 51°56' E 003°44'0 0.1
2016-May-18 22:25N 51°56' E 003°44'0 0.1
2016-May-18 21:25N 51°56' E 003°44'0 0.1
2016-May-18 20:28N 51°56' E 003°44'0 0.0
2016-May-18 19:25N 51°56' E 003°44'0 0.0
2016-May-18 18:31N 51°56' E 003°44'0 0.0
2016-May-18 17:28N 51°56' E 003°44'0 0.1
2016-May-18 16:28N 51°56' E 003°44'0 0.1
2016-May-18 15:31N 51°56' E 003°44'0 0.0
2016-May-18 12:16N 51°56' E 003°44'0 0.0
2016-May-18 11:10N 51°56' E 003°44'0 0.0
2016-May-18 09:28N 51°56' E 003°44'0 0.1
2016-May-18 08:31N 51°56' E 003°44'0 0.0
2016-May-18 07:22N 51°56' E 003°44'0 0.1
2016-May-18 06:22N 51°56' E 003°44'0 0.2
2016-May-18 05:28N 51°56' E 003°44'0 0.0
2016-May-18 04:31N 51°56' E 003°44'0 0.0
2016-May-18 00:10N 51°56' E 003°44'0 0.0
2016-May-17 23:22N 51°56' E 003°44'0 0.0
2016-May-17 20:19N 51°56' E 003°44'0 0.2
2016-May-17 19:31N 51°56' E 003°44'0 0.0
2016-May-17 18:31N 51°56' E 003°44'0 0.0
2016-May-17 17:28N 51°56' E 003°44'0 0.0
2016-May-17 16:28N 51°56' E 003°44'0 0.1
2016-May-17 15:31N 51°56' E 003°44'0 0.1
2016-May-17 14:25N 51°56' E 003°44'0 0.0
2016-May-17 13:25N 51°56' E 003°44'0 0.0
2016-May-17 10:04N 51°56' E 003°44'0 0.1
2016-May-17 09:28N 51°56' E 003°44'0 0.1
2016-May-17 08:25N 51°56' E 003°44'0 0.1
2016-May-17 07:28N 51°56' E 003°44'0 0.0
2016-May-17 06:25N 51°56' E 003°44'0 0.0
2016-May-17 05:16N 51°56' E 003°44'0 0.1
2016-May-17 04:28N 51°56' E 003°44'0 0.1
2016-May-17 03:25N 51°56' E 003°44'0 0.0
2016-May-17 02:04N 51°56' E 003°44'  
Track history (hours):
 
Tides and Currents Weather Stations Pressure Air Temp Water Temp Dewpoint Dewpoint Depression Visibility Wind Speed Wind Dir Waves Ship Positions

M/T Goviken

Last reported at 2016-May-27 01:33 UTC. Time now 2016-May-27 02:21 UTC.
Position N 54°41' W 001°08'.

Length 88 m; draft 6.4 m.

Type: Ship (hazmat cat A). MMSI: 215389000.

Date/timePositionNaut miles runAvg speedWind from/ knotsBaromVisibWave heightAir tempDewpointWater temp
2016-May-27 01:33N 54°41' W 001°08'3 0.2
2016-May-26 06:33N 54°38' W 001°09'6 5.8
2016-May-26 05:33N 54°43' W 001°06'3 3.3
2016-May-26 04:32N 54°45' W 001°09'0 0.0
2016-May-26 03:30N 54°45' W 001°09'0 0.0
2016-May-26 02:32N 54°45' W 001°09'0 0.0
2016-May-26 01:32N 54°46' W 001°09'0 0.0
2016-May-26 00:32N 54°45' W 001°09'0 0.0
2016-May-25 23:32N 54°45' W 001°09'0 0.0
2016-May-25 22:29N 54°45' W 001°09'0 0.0
2016-May-25 21:33N 54°45' W 001°09'0 0.0
2016-May-25 20:32N 54°45' W 001°09'0 0.0
2016-May-25 19:33N 54°45' W 001°09'0 0.0
2016-May-25 18:32N 54°45' W 001°09'0 0.0
2016-May-25 17:33N 54°45' W 001°09'0 0.0
2016-May-25 16:32N 54°45' W 001°09'0 0.0
2016-May-25 15:32N 54°45' W 001°09'0 0.0
2016-May-25 14:32N 54°45' W 001°09'0 0.0
2016-May-25 13:32N 54°45' W 001°09'0 0.0
2016-May-25 12:33N 54°45' W 001°09'0 0.0
2016-May-25 11:32N 54°45' W 001°09'0 0.0
2016-May-25 10:32N 54°45' W 001°09'0 0.0
2016-May-25 09:32N 54°46' W 001°09'0 0.0
2016-May-25 08:32N 54°46' W 001°09'0 0.0
2016-May-25 07:32N 54°45' W 001°09'0 0.0
2016-May-25 06:26N 54°45' W 001°09'0 0.0
2016-May-25 05:32N 54°45' W 001°09'0 0.0
2016-May-25 04:32N 54°45' W 001°09'0 0.0
2016-May-25 03:32N 54°45' W 001°09'0 0.0
2016-May-25 02:29N 54°45' W 001°09'0 0.0
2016-May-25 01:32N 54°46' W 001°09'0 0.0
2016-May-25 00:32N 54°46' W 001°09'0 0.0
2016-May-24 23:32N 54°46' W 001°09'0 0.0
2016-May-24 22:32N 54°46' W 001°09'0 0.0
2016-May-24 21:32N 54°46' W 001°09'0 0.0
2016-May-24 20:32N 54°46' W 001°09'0 0.0
2016-May-24 19:32N 54°46' W 001°09'0 0.0
2016-May-24 18:32N 54°46' W 001°09'0 0.0
2016-May-24 17:26N 54°45' W 001°09'0 0.0
2016-May-24 16:32N 54°45' W 001°09'0 0.0
2016-May-24 15:32N 54°46' W 001°09'0 0.0
2016-May-24 14:32N 54°46' W 001°09'0 0.0
2016-May-24 13:31N 54°46' W 001°09'0 0.0
2016-May-24 12:32N 54°46' W 001°09'0 0.0
2016-May-24 11:32N 54°46' W 001°09'0 0.0
2016-May-24 10:32N 54°46' W 001°09'0 0.0
2016-May-24 09:32N 54°46' W 001°09'1 0.8
2016-May-24 08:33N 54°45' W 001°09'5 5.3
2016-May-24 07:33N 54°42' W 001°01'0 0.0
2016-May-24 06:30N 54°42' W 001°01'0 0.0
2016-May-24 05:30N 54°42' W 001°01'0 0.0
2016-May-24 04:33N 54°42' W 001°01'0 0.0
2016-May-24 03:33N 54°42' W 001°01'0 0.0
2016-May-24 02:33N 54°42' W 001°01'0 0.1
2016-May-24 01:30N 54°42' W 001°01'0 0.0
2016-May-24 00:33N 54°42' W 001°01'0 0.0
2016-May-23 23:33N 54°42' W 001°01'0 0.0
2016-May-23 22:33N 54°42' W 001°01'0 0.0
2016-May-23 21:33N 54°42' W 001°01'0 0.0
2016-May-23 20:33N 54°42' W 001°01'0 0.1
2016-May-23 19:33N 54°42' W 001°01'0 0.0
2016-May-23 18:33N 54°42' W 001°01'0 0.0
2016-May-23 17:33N 54°42' W 001°01'0 0.0
2016-May-23 16:33N 54°42' W 001°01'0 0.0
2016-May-23 15:30N 54°42' W 001°01'0 0.0
2016-May-23 14:33N 54°42' W 001°01'0 0.0
2016-May-23 13:33N 54°42' W 001°01'0 0.0
2016-May-23 12:33N 54°42' W 001°01'0 0.0
2016-May-23 11:33N 54°42' W 001°01'0 0.0
2016-May-23 10:30N 54°42' W 001°01'0 0.1
2016-May-23 09:33N 54°42' W 001°01'0 0.1
2016-May-23 08:33N 54°42' W 001°01'0 0.0
2016-May-23 07:33N 54°42' W 001°01'0 0.0
2016-May-23 06:30N 54°42' W 001°01'0 0.0
2016-May-23 05:33N 54°42' W 001°01'0 0.0
2016-May-23 04:33N 54°42' W 001°01'0 0.0
2016-May-23 03:33N 54°42' W 001°01'0 0.0
2016-May-23 02:33N 54°42' W 001°01'0 0.0
2016-May-23 01:33N 54°42' W 001°01'0 0.0
2016-May-23 00:30N 54°42' W 001°01'0 0.1
2016-May-22 23:30N 54°42' W 001°01'0 0.0
2016-May-22 22:33N 54°42' W 001°01'0 0.0
2016-May-22 21:33N 54°42' W 001°01'0 0.0
2016-May-22 20:33N 54°42' W 001°01'0 0.0
2016-May-22 19:33N 54°42' W 001°01'0 0.1
2016-May-22 18:33N 54°42' W 001°01'0 0.1
2016-May-22 17:33N 54°42' W 001°01'0 0.0
2016-May-22 16:27N 54°42' W 001°01'0 0.1
2016-May-22 15:33N 54°42' W 001°01'0 0.1
2016-May-22 14:33N 54°42' W 001°01'0 0.1
2016-May-22 13:33N 54°42' W 001°01'0 0.0
2016-May-22 12:30N 54°42' W 001°01'0 0.0
2016-May-22 11:33N 54°42' W 001°01'0 0.0
2016-May-22 10:33N 54°42' W 001°01'0 0.0
2016-May-22 09:33N 54°42' W 001°01'0 0.0
2016-May-22 08:33N 54°42' W 001°01'0 0.1
2016-May-22 07:33N 54°42' W 001°01'0 0.1
2016-May-22 06:33N 54°42' W 001°01'0 0.0
2016-May-22 05:33N 54°42' W 001°01'0 0.0
2016-May-22 04:33N 54°42' W 001°01'0 0.0
2016-May-22 03:33N 54°42' W 001°01'0 0.0
2016-May-22 02:33N 54°42' W 001°01'0 0.1
2016-May-22 01:30N 54°42' W 001°01'0 0.1
2016-May-22 00:33N 54°42' W 001°01'0 0.1
2016-May-21 23:33N 54°42' W 001°01'0 0.0
2016-May-21 22:33N 54°42' W 001°01'0 0.0
2016-May-21 21:30N 54°42' W 001°01'0 0.0
2016-May-21 20:30N 54°42' W 001°01'0 0.0
2016-May-21 19:33N 54°42' W 001°01'0 0.0
2016-May-21 18:30N 54°42' W 001°01'0 0.1
2016-May-21 17:33N 54°42' W 001°01'0 0.2
2016-May-21 16:33N 54°42' W 001°01'9 9.1
2016-May-21 15:33N 54°41' W 000°45'10 9.5
2016-May-21 14:30N 54°37' W 000°30'8 8.1
2016-May-21 13:33N 54°32' W 000°19'8 7.9
2016-May-21 12:33N 54°27' W 000°08'8 7.8
2016-May-21 11:33N 54°22' E 000°03'8 8.3
2016-May-21 10:33N 54°16' E 000°11'9 8.7
2016-May-21 09:34N 54°08' E 000°19'10 9.5
2016-May-21 08:33N 54°00' E 000°28'58 9.7
2016-May-21 02:33N 53°11' E 001°19'1312.6
2016-May-21 01:33N 53°00' E 001°30'1313.2
2016-May-21 00:33N 52°51' E 001°45'1312.6
2016-May-20 23:33N 52°44' E 002°04'1211.3
2016-May-20 22:29N 52°38' E 002°20'1010.4
2016-May-20 21:31N 52°32' E 002°34'1010.1
2016-May-20 20:33N 52°27' E 002°47'1410.6
2016-May-20 19:16N 52°20' E 003°06'810.5
2016-May-20 18:33N 52°15' E 003°16'1210.6
2016-May-20 17:28N 52°09' E 003°32'910.2
2016-May-20 16:33N 52°05' E 003°46'8 7.6
2016-May-20 15:33N 52°02' E 003°57'1010.2
2016-May-20 14:33N 51°56' E 004°11'0 0.0
2016-May-20 13:31N 51°56' E 004°11'0 0.0
2016-May-20 12:31N 51°56' E 004°11'0 0.0
2016-May-20 11:31N 51°56' E 004°11'0 0.0
2016-May-20 10:31N 51°56' E 004°11'0 0.0
2016-May-20 09:31N 51°56' E 004°11'0 0.0
2016-May-20 08:31N 51°56' E 004°11'0 0.0
2016-May-20 07:31N 51°56' E 004°11'0 0.0
2016-May-20 06:31N 51°56' E 004°11'0 0.0
2016-May-20 05:28N 51°56' E 004°11'0 0.0
2016-May-20 04:31N 51°56' E 004°11'0 0.0
2016-May-20 03:31N 51°56' E 004°11'0 0.0
2016-May-20 02:28N 51°56' E 004°11'0 0.0
2016-May-20 01:31N 51°56' E 004°11'0 0.0
2016-May-20 00:31N 51°56' E 004°11'0 0.0
2016-May-19 23:31N 51°56' E 004°11'0 0.0
2016-May-19 22:31N 51°56' E 004°11'0 0.0
2016-May-19 21:31N 51°56' E 004°11'0 0.0
2016-May-19 20:31N 51°56' E 004°11'0 0.0
2016-May-19 19:31N 51°56' E 004°11'0 0.0
2016-May-19 18:31N 51°56' E 004°11'0 0.0
2016-May-19 17:31N 51°56' E 004°11'0 0.0
2016-May-19 16:31N 51°56' E 004°11'0 0.0
2016-May-19 15:31N 51°56' E 004°11'0 0.0
2016-May-19 14:33N 51°56' E 004°11'3 3.2
2016-May-19 13:33N 51°58' E 004°07'1110.9
2016-May-19 12:33N 51°60' E 003°49'5 3.5
2016-May-19 11:04N 51°56' E 003°44'0 0.0
2016-May-19 10:16N 51°56' E 003°44'0 0.1
2016-May-19 09:31N 51°56' E 003°44'0 0.0
2016-May-19 08:22N 51°56' E 003°44'0 0.0
2016-May-19 07:28N 51°56' E 003°44'0 0.0
2016-May-19 06:13N 51°56' E 003°44'0 0.0
2016-May-19 02:25N 51°56' E 003°44'0 0.0
2016-May-19 00:19N 51°56' E 003°44'0 0.0
2016-May-18 23:25N 51°56' E 003°44'0 0.1
2016-May-18 22:25N 51°56' E 003°44'0 0.1
2016-May-18 21:25N 51°56' E 003°44'0 0.1
2016-May-18 20:28N 51°56' E 003°44'0 0.0
2016-May-18 19:25N 51°56' E 003°44'0 0.0
2016-May-18 18:31N 51°56' E 003°44'0 0.0
2016-May-18 17:28N 51°56' E 003°44'0 0.1
2016-May-18 16:28N 51°56' E 003°44'0 0.1
2016-May-18 15:31N 51°56' E 003°44'0 0.0
2016-May-18 12:16N 51°56' E 003°44'0 0.0
2016-May-18 11:10N 51°56' E 003°44'0 0.0
2016-May-18 09:28N 51°56' E 003°44'0 0.1
2016-May-18 08:31N 51°56' E 003°44'0 0.0
2016-May-18 07:22N 51°56' E 003°44'0 0.1
2016-May-18 06:22N 51°56' E 003°44'0 0.2
2016-May-18 05:28N 51°56' E 003°44'0 0.0
2016-May-18 04:31N 51°56' E 003°44'0 0.0
2016-May-18 00:10N 51°56' E 003°44'0 0.0
2016-May-17 23:22N 51°56' E 003°44'0 0.0
2016-May-17 20:19N 51°56' E 003°44'0 0.2
2016-May-17 19:31N 51°56' E 003°44'0 0.0
2016-May-17 18:31N 51°56' E 003°44'0 0.0
2016-May-17 17:28N 51°56' E 003°44'0 0.0
2016-May-17 16:28N 51°56' E 003°44'0 0.1
2016-May-17 15:31N 51°56' E 003°44'0 0.1
2016-May-17 14:25N 51°56' E 003°44'0 0.0
2016-May-17 13:25N 51°56' E 003°44'0 0.0
2016-May-17 10:04N 51°56' E 003°44'0 0.1
2016-May-17 09:28N 51°56' E 003°44'0 0.1
2016-May-17 08:25N 51°56' E 003°44'0 0.1
2016-May-17 07:28N 51°56' E 003°44'0 0.0
2016-May-17 06:25N 51°56' E 003°44'0 0.0
2016-May-17 05:16N 51°56' E 003°44'0 0.1
2016-May-17 04:28N 51°56' E 003°44'0 0.1
2016-May-17 03:25N 51°56' E 003°44'0 0.0
2016-May-17 02:04N 51°56' E 003°44'  

Dump ship's entire track history